Data for 07/11/2014

Time Sea-Level Adjusted Pressure Absolute Pressure Temperature Relative Humidity Dew Point   
(mb) (inHg) (mb) (inHg) (C) (F) (%) (C) (F)
00:05 1018 30.06 847 25.01 18.1 64.6 42 5.1 41.2
00:10 1018 30.06 847 25.01 17.7 63.8 44 5.3 41.5
00:15 1018 30.06 847 25.01 17.3 63.1 46 5.7 42.2
00:20 1018 30.06 847 25.01 17.1 62.7 45 5.3 41.5
00:25 1018 30.06 847 25.01 17.1 62.8 43 4.6 40.3
00:30 1018 30.06 847 25.01 17.7 63.9 40 4.2 39.5
00:35 1018 30.06 847 25.01 18.3 65 38 4 39.1
00:40 1018 30.06 847 25.01 18.3 65 41 5 41
00:45 1018 30.06 847 25.01 18.1 64.6 43 5.4 41.6
00:50 1018 30.06 848 25.04 17.7 63.9 41 4.4 40
00:55 1018 30.06 848 25.04 17.5 63.5 42 4.6 40.2
01:00 1018 30.06 848 25.04 17.5 63.4 41 4.1 39.5
01:05 1018 30.06 848 25.04 17.7 63.8 41 4.5 40
01:10 1018 30.06 848 25.04 17.8 64 42 4.8 40.6
01:15 1018 30.06 848 25.04 17.6 63.7 42 4.8 40.7
01:20 1018 30.06 848 25.04 17.8 64.1 40 4.2 39.5
01:25 1018 30.06 848 25.04 17.9 64.3 39 3.9 39.1
01:30 1018 30.06 848 25.04 17.7 63.8 41 4.4 40
01:35 1019 30.09 848 25.04 17.3 63.2 42 4.5 40.1
01:40 1019 30.09 848 25.04 17.1 62.7 43 4.6 40.2
01:45 1019 30.09 848 25.04 17.2 62.9 42 4.2 39.6
01:50 1019 30.09 848 25.04 17.4 63.4 42 4.4 39.9
01:55 1019 30.09 848 25.04 17.6 63.7 40 4 39.1
02:00 1019 30.09 848 25.04 17.7 63.8 42 4.6 40.3
02:05 1019 30.09 848 25.04 17.3 63.1 42 4.5 40.1
02:10 1019 30.09 848 25.04 17.2 63 42 4.3 39.8
02:15 1019 30.09 848 25.04 17.1 62.8 43 4.6 40.3
02:20 1019 30.09 848 25.04 17.2 62.9 42 4.4 39.8
02:25 1019 30.09 848 25.04 17.3 63.1 44 4.9 40.8
02:30 1019 30.09 848 25.04 16.8 62.2 44 4.6 40.3
02:35 1019 30.09 848 25.04 16.9 62.3 44 4.7 40.5
02:40 1019 30.09 848 25.04 16.4 61.6 46 4.7 40.5
02:45 1019 30.09 848 25.04 16.4 61.5 45 4.5 40.1
02:50 1019 30.09 848 25.04 16.5 61.7 45 4.7 40.4
02:55 1019 30.09 848 25.04 16.2 61.2 45 4.5 40.1
03:00 1019 30.09 848 25.04 16.5 61.7 42 3.7 38.6
03:05 1019 30.09 848 25.04 17.2 62.9 40 3.5 38.4
03:10 1019 30.09 848 25.04 17.5 63.4 40 3.8 38.9
03:15 1019 30.09 848 25.04 17.4 63.2 41 4 39.1
03:20 1019 30.09 848 25.04 17.4 63.3 39 3.4 38.2
03:25 1019 30.09 848 25.04 17.6 63.7 41 4.2 39.6
03:30 1019 30.09 848 25.04 17.5 63.5 40 4 39.2
03:35 1019 30.09 848 25.04 17 62.7 42 4.1 39.3
03:40 1019 30.09 848 25.04 16.6 61.9 43 4.2 39.6
03:45 1019 30.09 849 25.07 16.1 61 45 4.3 39.8
03:50 1019 30.09 849 25.07 15.8 60.5 46 4.3 39.7
03:55 1019 30.09 849 25.07 15.8 60.4 47 4.5 40
04:00 1019 30.09 849 25.07 16.4 61.6 41 3.1 37.6
04:05 1020 30.12 849 25.07 16.8 62.3 41 3.7 38.6
04:10 1020 30.12 849 25.07 16.8 62.3 40 3.4 38.1
04:15 1020 30.12 849 25.07 16.9 62.5 41 3.6 38.5
04:20 1020 30.12 849 25.07 16.5 61.6 43 4.1 39.4
04:25 1020 30.12 849 25.07 15.9 60.6 45 4.1 39.4
04:30 1020 30.12 849 25.07 15.6 60.1 51 5.5 42
04:35 1020 30.12 849 25.07 15.2 59.3 48 4.3 39.7
04:40 1020 30.12 849 25.07 15.2 59.3 46 3.7 38.7
04:45 1020 30.12 849 25.07 15.5 60 44 3.3 38
04:50 1020 30.12 849 25.07 16.1 60.9 42 3.1 37.6
04:55 1020 30.12 849 25.07 16.3 61.4 42 3.4 38.1
05:00 1020 30.12 849 25.07 16.6 61.8 40 3.2 37.7
05:05 1020 30.12 849 25.07 16.7 62.1 42 3.8 38.8
05:10 1020 30.12 849 25.07 16.8 62.2 40 3.3 38
05:15 1020 30.12 849 25.07 17 62.5 40 3.3 38
05:20 1020 30.12 850 25.1 17 62.6 40 3.3 38
05:25 1020 30.12 850 25.1 16.9 62.5 40 3.2 37.8
05:30 1020 30.12 850 25.1 16.6 61.9 46 4.9 40.9
05:35 1020 30.12 850 25.1 15.7 60.3 47 4.5 40.2
05:40 1021 30.15 850 25.1 15.7 60.3 53 6.3 43.4
05:45 1021 30.15 850 25.1 15.9 60.6 51 5.9 42.6
05:50 1021 30.15 850 25.1 15.9 60.7 48 4.9 40.9
05:55 1021 30.15 850 25.1 15.7 60.3 47 4.4 40
06:00 1021 30.15 850 25.1 15.7 60.2 47 4.6 40.3
06:05 1021 30.15 850 25.1 15.6 60.1 49 4.9 40.9
06:10 1021 30.15 850 25.1 15.7 60.2 46 4.2 39.6
06:15 1021 30.15 850 25.1 16.2 61.2 45 4.4 39.9
06:20 1021 30.15 850 25.1 16.7 62 48 5.8 42.4
06:25 1021 30.15 850 25.1 16.4 61.5 48 5.4 41.7
06:30 1021 30.15 851 25.13 16.6 61.9 49 5.9 42.6
06:35 1021 30.15 851 25.13 16.9 62.4 46 5.4 41.7
06:40 1021 30.15 851 25.13 17.2 63 45 5.2 41.3
06:45 1021 30.15 851 25.13 17.5 63.5 45 5.5 41.9
06:50 1022 30.18 851 25.13 17.7 63.9 44 5.4 41.7
06:55 1022 30.18 851 25.13 17.6 63.7 46 6.1 43
07:00 1022 30.18 851 25.13 17.4 63.2 47 6.1 42.9
07:05 1022 30.18 851 25.13 17.4 63.3 49 6.7 44
07:10 1022 30.18 851 25.13 17.6 63.8 48 6.7 44.1
07:15 1022 30.18 851 25.13 18.1 64.5 47 6.6 44
07:20 1022 30.18 851 25.13 18.6 65.4 45 6.6 43.9
07:25 1022 30.18 851 25.13 18.9 66.1 43 6.1 43
07:30 1022 30.18 851 25.13 19.3 66.7 45 7.2 44.9
07:35 1022 30.18 851 25.13 19.1 66.3 45 6.9 44.5
07:40 1022 30.18 852 25.16 18.5 65.2 47 7.2 45
07:45 1022 30.18 852 25.16 18.5 65.3 50 8.1 46.6
07:50 1023 30.21 852 25.16 19 66.2 47 7.4 45.4
07:55 1023 30.21 852 25.16 18.8 65.8 47 7.5 45.4
08:00 1023 30.21 852 25.16 18.8 65.8 46 7.1 44.8
08:05 1023 30.21 852 25.16 18.7 65.7 48 7.5 45.5
08:10 1023 30.21 852 25.16 18.9 66 48 7.9 46.2
08:15 1023 30.21 852 25.16 18.9 66 49 8.1 46.7
08:20 1023 30.21 852 25.16 19.2 66.6 50 8.7 47.7
08:25 1023 30.21 852 25.16 19.3 66.8 49 8.4 47.1
08:30 1023 30.21 852 25.16 19.6 67.2 44 7.3 45.1
08:35 1023 30.21 852 25.16 20.3 68.6 44 7.9 46.2
08:40 1023 30.21 852 25.16 20.3 68.5 47 8.8 47.8
08:45 1022 30.18 852 25.16 20.2 68.3 48 8.9 48.1
08:50 1022 30.18 852 25.16 20.4 68.7 48 9.1 48.4
08:55 1022 30.18 852 25.16 20.1 68.2 49 9.3 48.7
09:00 1022 30.18 852 25.16 20.1 68.2 50 9.4 48.9
09:05 1022 30.18 852 25.16 20 68.1 50 9.5 49.1
09:10 1022 30.18 852 25.16 20.4 68.7 50 9.7 49.4
09:15 1022 30.18 852 25.16 20.5 68.9 50 9.9 49.8
09:20 1022 30.18 852 25.16 20.3 68.5 51 9.8 49.7
09:25 1022 30.18 851 25.13 20.1 68.2 51 9.7 49.4
09:30 1022 30.18 851 25.13 19.9 67.9 52 10 50
09:35 1022 30.18 851 25.13 19.5 67 54 10 50
09:40 1022 30.18 851 25.13 19.4 66.8 55 10.2 50.4
09:45 1022 30.18 851 25.13 19 66.3 56 10.2 50.4
09:50 1022 30.18 851 25.13 19 66.2 57 10.4 50.7
09:55 1023 30.21 852 25.16 19.4 66.9 56 10.6 51
10:00 1023 30.21 852 25.16 19.8 67.6 54 10.3 50.6
10:05 1022 30.18 852 25.16 20.2 68.3 53 10.4 50.7
10:10 1022 30.18 852 25.16 20.7 69.3 52 10.6 51
10:15 1023 30.21 852 25.16 20.2 68.3 53 10.5 51
10:20 1023 30.21 852 25.16 20.1 68.2 54 10.5 50.9
10:25 1023 30.21 852 25.16 20.1 68.2 53 10.3 50.6
10:30 1023 30.21 852 25.16 20.4 68.6 52 10.4 50.7
10:35 1022 30.18 852 25.16 20.4 68.7 51 9.9 49.9
10:40 1022 30.18 852 25.16 20.6 69 51 10.3 50.6
10:45 1022 30.18 852 25.16 20.8 69.4 50 10.1 50.2
10:50 1022 30.18 852 25.16 20.7 69.2 50 10.2 50.3
10:55 1022 30.18 852 25.16 21.1 70 48 9.9 49.9
11:00 1022 30.18 852 25.16 21.5 70.7 48 10.2 50.4
11:05 1022 30.18 852 25.16 21.5 70.6 49 10.3 50.6
11:10 1022 30.18 852 25.16 21.1 70 49 10.2 50.3
11:15 1022 30.18 851 25.13 21.3 70.3 49 10.3 50.5
11:20 1022 30.18 851 25.13 21.2 70.2 48 10 49.9
11:25 1022 30.18 851 25.13 21.6 70.8 49 10.4 50.7
11:30 1022 30.18 851 25.13 21.7 71 48 10.4 50.6
11:35 1022 30.18 851 25.13 21.7 71.1 48 10.4 50.7
11:40 1022 30.18 851 25.13 21.7 71 48 10.3 50.5
11:45 1022 30.18 851 25.13 22.1 71.7 48 10.8 51.4
11:50 1022 30.18 851 25.13 21.9 71.4 48 10.6 51.1
11:55 1022 30.18 851 25.13 22.2 71.9 46 10.3 50.5
12:00 1022 30.18 851 25.13 23 73.4 44 10.4 50.7
12:05 1022 30.18 851 25.13 23.2 73.7 44 10.3 50.6
12:10 1022 30.18 851 25.13 23.1 73.6 44 10.3 50.6
12:15 1022 30.18 851 25.13 23 73.5 45 10.6 51.1
12:20 1022 30.18 851 25.13 23.2 73.8 44 10.4 50.7
12:25 1022 30.18 851 25.13 23.6 74.5 43 10.7 51.2
12:30 1022 30.18 851 25.13 23.5 74.4 42 10.2 50.4
12:35 1022 30.18 851 25.13 23.3 74 44 10.6 51.1
12:40 1022 30.18 851 25.13 23.2 73.7 45 10.7 51.2
12:45 1022 30.18 851 25.13 23.7 74.7 43 10.5 50.9
12:50 1022 30.18 851 25.13 23.4 74.1 44 10.7 51.2
12:55 1021 30.15 851 25.13 23.7 74.7 42 10.3 50.5
13:00 1021 30.15 851 25.13 23.5 74.3 44 10.6 51.1
13:05 1021 30.15 851 25.13 23.6 74.4 43 10.5 51
13:10 1021 30.15 850 25.1 23.8 74.9 41 10 50
13:15 1021 30.15 851 25.13 23.9 75.1 42 10.4 50.7
13:20 1021 30.15 850 25.1 24 75.3 42 10.4 50.7
13:25 1021 30.15 850 25.1 24.1 75.3 43 10.8 51.4
13:30 1021 30.15 850 25.1 24.5 76.1 39 10 50
13:35 1021 30.15 850 25.1 24.9 76.8 39 10.3 50.5
13:40 1021 30.15 850 25.1 24.6 76.2 41 10.8 51.4
13:45 1021 30.15 850 25.1 24.5 76.1 41 10.5 50.9
13:50 1021 30.15 850 25.1 24.7 76.4 39 10 50.1
13:55 1021 30.15 850 25.1 25 76.9 40 10.8 51.4
14:00 1021 30.15 850 25.1 25.2 77.4 38 10.2 50.3
14:05 1021 30.15 850 25.1 25.5 77.8 38 10.4 50.8
14:10 1021 30.15 850 25.1 25.4 77.7 39 10.5 50.9
14:15 1021 30.15 850 25.1 25.2 77.4 38 10 50
14:20 1021 30.15 850 25.1 25.5 77.8 37 10.1 50.1
14:25 1021 30.15 850 25.1 25.3 77.5 38 10.3 50.6
14:30 1021 30.15 850 25.1 25.5 78 37 10.1 50.2
14:35 1021 30.15 850 25.1 25.3 77.6 39 10.6 51
14:40 1021 30.15 850 25.1 25.3 77.5 39 10.4 50.8
14:45 1021 30.15 850 25.1 25.7 78.2 37 10.3 50.6
14:50 1021 30.15 850 25.1 25.7 78.2 36 9.8 49.6
14:55 1021 30.15 850 25.1 26.1 79 37 10.6 51
15:00 1021 30.15 850 25.1 25.9 78.7 38 10.8 51.4
15:05 1021 30.15 850 25.1 25.8 78.5 38 10.7 51.3
15:10 1021 30.15 850 25.1 25.6 78 38 10.3 50.6
15:15 1021 30.15 850 25.1 26.1 79 37 10.4 50.7
15:20 1021 30.15 850 25.1 25.6 78.1 39 10.7 51.3
15:25 1020 30.12 850 25.1 25.5 77.8 39 10.7 51.3
15:30 1020 30.12 850 25.1 25.4 77.6 38 10.4 50.7
15:35 1020 30.12 850 25.1 25.6 78.1 39 10.7 51.3
15:40 1020 30.12 850 25.1 25.9 78.5 39 11 51.8
15:45 1020 30.12 850 25.1 25.6 78 39 10.8 51.5
15:50 1020 30.12 850 25.1 25.7 78.3 38 10.7 51.3
15:55 1020 30.12 850 25.1 25.4 77.8 39 10.6 51.1
16:00 1020 30.12 850 25.1 25.8 78.4 37 10.4 50.7
16:05 1020 30.12 850 25.1 25.6 78 39 10.7 51.2
16:10 1020 30.12 850 25.1 25.4 77.6 39 10.7 51.2
16:15 1020 30.12 850 25.1 25.3 77.6 39 10.5 50.9
16:20 1020 30.12 849 25.07 25 77.1 39 10.5 50.9
16:25 1020 30.12 849 25.07 25 76.9 39 10.4 50.7
16:30 1020 30.12 849 25.07 25 77 40 10.6 51.1
16:35 1020 30.12 849 25.07 24.8 76.7 40 10.4 50.7
16:40 1020 30.12 850 25.1 24.7 76.5 40 10.6 51.1
16:45 1020 30.12 850 25.1 24.6 76.2 40 10.2 50.4
16:50 1020 30.12 850 25.1 24.5 76.1 41 10.6 51
16:55 1020 30.12 850 25.1 24.6 76.2 40 10.5 50.8
17:00 1020 30.12 850 25.1 24.7 76.5 41 10.6 51.1
17:05 1020 30.12 850 25.1 24.7 76.4 40 10.3 50.5
17:10 1020 30.12 850 25.1 24.6 76.4 40 10.5 50.8
17:15 1020 30.12 850 25.1 24.5 76.1 42 11 51.8
17:20 1020 30.12 850 25.1 24.5 76 42 10.9 51.6
17:25 1020 30.12 850 25.1 24.3 75.7 41 10.5 51
17:30 1020 30.12 850 25.1 24.2 75.6 41 10.3 50.6
17:35 1020 30.12 850 25.1 24.2 75.5 41 10.5 50.9
17:40 1020 30.12 850 25.1 24.2 75.6 42 10.6 51.1
17:45 1020 30.12 850 25.1 24.2 75.6 42 10.7 51.2
17:50 1020 30.12 850 25.1 24 75.2 43 10.7 51.2
17:55 1020 30.12 850 25.1 23.8 74.8 43 10.7 51.2
18:00 1020 30.12 850 25.1 23.8 74.8 43 10.8 51.5
18:05 1020 30.12 850 25.1 23.9 75.1 41 10.2 50.4
18:10 1021 30.15 850 25.1 23.8 74.9 43 10.7 51.3
18:15 1021 30.15 850 25.1 24 75.1 42 10.6 51.1
18:20 1021 30.15 850 25.1 23.9 74.9 43 10.8 51.4
18:25 1021 30.15 850 25.1 23.8 74.9 44 10.9 51.7
18:30 1021 30.15 850 25.1 23.7 74.6 44 10.8 51.4
18:35 1021 30.15 850 25.1 23.6 74.4 45 11 51.8
18:40 1021 30.15 850 25.1 23.4 74.2 45 10.9 51.6
18:45 1021 30.15 850 25.1 23.3 74 45 10.8 51.4
18:50 1021 30.15 850 25.1 23.2 73.7 46 11.1 51.9
18:55 1021 30.15 850 25.1 23.2 73.7 45 10.9 51.6
19:00 1021 30.15 850 25.1 23.1 73.6 45 10.9 51.6
19:05 1021 30.15 850 25.1 23 73.5 46 11.1 52
19:10 1021 30.15 850 25.1 23 73.3 47 11.1 52
19:15 1021 30.15 850 25.1 22.8 73.1 47 11 51.9
19:20 1021 30.15 850 25.1 22.7 72.9 47 11 51.9
19:25 1021 30.15 850 25.1 22.6 72.8 47 10.8 51.5
19:30 1021 30.15 850 25.1 22.6 72.7 47 10.9 51.7
19:35 1021 30.15 850 25.1 22.5 72.5 47 10.9 51.6
19:40 1021 30.15 850 25.1 22.4 72.4 47 10.9 51.6
19:45 1021 30.15 850 25.1 22.3 72.2 48 10.8 51.5
19:50 1021 30.15 850 25.1 22.2 72 48 10.9 51.5
19:55 1021 30.15 850 25.1 22.2 71.9 48 10.7 51.3
20:00 1021 30.15 851 25.13 22 71.7 49 10.9 51.5
20:05 1021 30.15 851 25.13 21.9 71.3 49 10.9 51.6
20:10 1021 30.15 851 25.13 21.8 71.2 49 10.8 51.4
20:15 1022 30.18 851 25.13 21.6 71 50 10.8 51.4
20:20 1022 30.18 851 25.13 21.5 70.7 50 10.8 51.4
20:25 1022 30.18 851 25.13 21.4 70.6 50 10.7 51.3
20:30 1022 30.18 851 25.13 21.4 70.5 50 10.7 51.3
20:35 1022 30.18 851 25.13 21.3 70.4 50 10.7 51.3
20:40 1022 30.18 851 25.13 21.3 70.3 51 10.8 51.4
20:45 1022 30.18 851 25.13 21.2 70.1 50 10.5 50.8
20:50 1022 30.18 851 25.13 21.1 70.1 50 10.5 50.9
20:55 1022 30.18 851 25.13 21.1 69.9 50 10.4 50.7
21:00 1022 30.18 851 25.13 21 69.8 50 10.3 50.5
21:05 1022 30.18 851 25.13 21 69.7 50 10.2 50.4
21:10 1022 30.18 851 25.13 20.9 69.6 50 10.1 50.2
21:15 1022 30.18 851 25.13 20.9 69.6 49 9.9 49.8
21:20 1022 30.18 851 25.13 21 69.8 49 9.9 49.9
21:25 1022 30.18 851 25.13 20.9 69.5 49 9.8 49.7
21:30 1022 30.18 851 25.13 20.8 69.5 48 9.6 49.3
21:35 1022 30.18 851 25.13 20.9 69.6 48 9.7 49.4
21:40 1022 30.18 851 25.13 20.9 69.6 48 9.7 49.4
21:45 1022 30.18 851 25.13 20.9 69.5 48 9.7 49.5
21:50 1022 30.18 851 25.13 20.8 69.5 49 9.7 49.5
21:55 1022 30.18 851 25.13 20.7 69.2 49 9.8 49.6
22:00 1022 30.18 851 25.13 20.6 69.2 49 9.6 49.4
22:05 1022 30.18 851 25.13 20.7 69.3 49 9.7 49.4
22:10 1022 30.18 851 25.13 20.6 69.1 49 9.6 49.3
22:15 1022 30.18 851 25.13 20.6 69.1 49 9.6 49.2
22:20 1022 30.18 851 25.13 20.6 69.1 48 9.4 48.9
22:25 1022 30.18 851 25.13 20.6 69.1 48 9.5 49
22:30 1022 30.18 851 25.13 20.6 69.1 48 9.4 48.9
22:35 1022 30.18 851 25.13 20.5 69 49 9.5 49
22:40 1022 30.18 851 25.13 20.5 68.8 48 9.3 48.7
22:45 1022 30.18 851 25.13 20.5 68.8 48 9.3 48.7
22:50 1022 30.18 851 25.13 20.5 68.9 49 9.5 49.1
22:55 1022 30.18 851 25.13 20.3 68.6 49 9.5 49.1
23:00 1022 30.18 851 25.13 20.3 68.6 50 9.6 49.3
23:05 1022 30.18 851 25.13 20.3 68.5 50 9.8 49.6
23:10 1022 30.18 851 25.13 20.3 68.5 51 9.9 49.8
23:15 1022 30.18 852 25.16 20.2 68.4 52 10.1 50.1
23:20 1022 30.18 852 25.16 20 68.1 53 10.3 50.6
23:25 1022 30.18 852 25.16 19.9 67.8 54 10.5 50.9
23:30 1023 30.21 852 25.16 19.8 67.6 54 10.5 50.8
23:35 1023 30.21 852 25.16 19.8 67.6 54 10.4 50.8
23:40 1023 30.21 852 25.16 19.7 67.5 55 10.5 50.8
23:45 1023 30.21 852 25.16 19.7 67.5 54 10.4 50.7
23:50 1023 30.21 853 25.19 19.7 67.4 56 10.8 51.4
23:55 1024 30.24 853 25.19 19.5 67.1 60 11.6 52.8
24:00 1024 30.24 853 25.19 19.2 66.5 60 11.4 52.5